Terminal Aerodrome Forecast
Issued by NWS

Home | Current Version | Previous Version | Text Only | Print | Product List | Glossary Off
Versions: 1 2 3 4 5 6 7 8 9 10 11 12 13 14 15 16 17 18 19 20 21 22 23 24 25 26

851
FTUS43 KGRB 242141 AAA
TAFAUW
TAF AMD
KAUW 242141Z 2422/2518 27010KT P6SM BKN050
     FM250100 27004KT P6SM SCT035 BKN080
     FM250400 VRB03KT P6SM SCT015 BKN250
      TEMPO 2508/2512 4SM BR BKN008
     FM251500 11008KT P6SM SCT025 BKN200=

USA.gov is the U.S. government's official web portal to all federal, state and local government web resources and services.